sensor_id;sensor_type;location;lat;lon;timestamp;pressure;altitude;pressure_sealevel;temperature;humidity
3102;BME280;1561;42.666;23.392;2022-12-07T00:01:57;95192.84;;;5.40;100.00
3102;BME280;1561;42.666;23.392;2022-12-07T00:04:24;95210.47;;;5.42;100.00
3102;BME280;1561;42.666;23.392;2022-12-07T00:06:56;95197.84;;;5.28;100.00
3102;BME280;1561;42.666;23.392;2022-12-07T00:09:27;95217.81;;;5.32;100.00
3102;BME280;1561;42.666;23.392;2022-12-07T00:11:57;95200.16;;;5.31;100.00
3102;BME280;1561;42.666;23.392;2022-12-07T00:14:25;95201.44;;;5.64;100.00
3102;BME280;1561;42.666;23.392;2022-12-07T00:16:54;95212.63;;;5.48;100.00
3102;BME280;1561;42.666;23.392;2022-12-07T00:19:26;95207.13;;;5.41;100.00
3102;BME280;1561;42.666;23.392;2022-12-07T00:21:57;95211.56;;;5.38;100.00
3102;BME280;1561;42.666;23.392;2022-12-07T00:24:32;95180.81;;;5.30;100.00
3102;BME280;1561;42.666;23.392;2022-12-07T00:27:01;95075.25;;;4.77;100.00
3102;BME280;1561;42.666;23.392;2022-12-07T00:29:29;95181.72;;;5.29;100.00
3102;BME280;1561;42.666;23.392;2022-12-07T00:31:57;95183.06;;;5.34;100.00
3102;BME280;1561;42.666;23.392;2022-12-07T00:34:29;95208.25;;;5.50;100.00
3102;BME280;1561;42.666;23.392;2022-12-07T00:37:01;95193.47;;;5.70;100.00
3102;BME280;1561;42.666;23.392;2022-12-07T00:39:30;95207.47;;;5.76;100.00
3102;BME280;1561;42.666;23.392;2022-12-07T00:42:04;95219.31;;;5.49;100.00
3102;BME280;1561;42.666;23.392;2022-12-07T00:44:46;95208.81;;;5.41;100.00
3102;BME280;1561;42.666;23.392;2022-12-07T00:47:15;95179.66;;;5.21;100.00
3102;BME280;1561;42.666;23.392;2022-12-07T00:49:43;95206.72;;;5.61;100.00
3102;BME280;1561;42.666;23.392;2022-12-07T00:52:14;95199.44;;;5.43;100.00
3102;BME280;1561;42.666;23.392;2022-12-07T00:54:41;95200.59;;;5.37;100.00
3102;BME280;1561;42.666;23.392;2022-12-07T00:57:10;95065.78;;;4.53;100.00
3102;BME280;1561;42.666;23.392;2022-12-07T00:59:44;95196.81;;;5.44;100.00
3102;BME280;1561;42.666;23.392;2022-12-07T01:02:16;95197.38;;;5.35;100.00
3102;BME280;1561;42.666;23.392;2022-12-07T01:04:49;95196.09;;;5.28;100.00
3102;BME280;1561;42.666;23.392;2022-12-07T01:07:22;95193.38;;;5.31;100.00
3102;BME280;1561;42.666;23.392;2022-12-07T01:09:51;95196.38;;;5.38;100.00
3102;BME280;1561;42.666;23.392;2022-12-07T01:12:25;95077.59;;;4.66;100.00
3102;BME280;1561;42.666;23.392;2022-12-07T01:14:52;95182.97;;;5.36;100.00
3102;BME280;1561;42.666;23.392;2022-12-07T01:17:20;95172.69;;;5.25;100.00
3102;BME280;1561;42.666;23.392;2022-12-07T01:19:46;95188.56;;;5.41;100.00
3102;BME280;1561;42.666;23.392;2022-12-07T01:22:15;95186.94;;;5.40;100.00
3102;BME280;1561;42.666;23.392;2022-12-07T01:24:49;95188.41;;;5.30;100.00
3102;BME280;1561;42.666;23.392;2022-12-07T01:27:16;95190.84;;;5.31;100.00
3102;BME280;1561;42.666;23.392;2022-12-07T01:29:47;95172.34;;;5.17;100.00
3102;BME280;1561;42.666;23.392;2022-12-07T01:32:14;95170.59;;;5.58;100.00
3102;BME280;1561;42.666;23.392;2022-12-07T01:34:44;95184.31;;;5.41;100.00
3102;BME280;1561;42.666;23.392;2022-12-07T01:37:13;95123.25;;;5.05;100.00
3102;BME280;1561;42.666;23.392;2022-12-07T01:39:40;95175.09;;;5.40;100.00
3102;BME280;1561;42.666;23.392;2022-12-07T01:42:24;95169.66;;;5.46;100.00
3102;BME280;1561;42.666;23.392;2022-12-07T01:45:31;95178.13;;;5.59;100.00
3102;BME280;1561;42.666;23.392;2022-12-07T01:48:05;95177.47;;;5.43;100.00
3102;BME280;1561;42.666;23.392;2022-12-07T01:50:38;95167.53;;;5.26;100.00
3102;BME280;1561;42.666;23.392;2022-12-07T01:53:15;95095.06;;;4.97;100.00
3102;BME280;1561;42.666;23.392;2022-12-07T01:55:49;95150.56;;;5.41;100.00
3102;BME280;1561;42.666;23.392;2022-12-07T01:58:20;95112.88;;;5.36;100.00
3102;BME280;1561;42.666;23.392;2022-12-07T02:00:48;95043.31;;;4.89;100.00
3102;BME280;1561;42.666;23.392;2022-12-07T02:03:21;95158.28;;;5.39;100.00
3102;BME280;1561;42.666;23.392;2022-12-07T02:05:49;95138.28;;;5.35;100.00
3102;BME280;1561;42.666;23.392;2022-12-07T02:08:20;95156.84;;;5.62;100.00
3102;BME280;1561;42.666;23.392;2022-12-07T02:10:51;95119.19;;;5.43;100.00
3102;BME280;1561;42.666;23.392;2022-12-07T02:13:21;95165.19;;;5.64;100.00
3102;BME280;1561;42.666;23.392;2022-12-07T02:16:09;95152.66;;;5.48;100.00
3102;BME280;1561;42.666;23.392;2022-12-07T02:18:48;95155.53;;;5.42;100.00
3102;BME280;1561;42.666;23.392;2022-12-07T02:21:26;95167.84;;;5.34;100.00
3102;BME280;1561;42.666;23.392;2022-12-07T02:24:18;95136.97;;;5.15;100.00
3102;BME280;1561;42.666;23.392;2022-12-07T02:27:28;95167.69;;;5.37;100.00
3102;BME280;1561;42.666;23.392;2022-12-07T02:30:05;95155.75;;;5.39;100.00
3102;BME280;1561;42.666;23.392;2022-12-07T02:32:43;95142.53;;;5.34;100.00
3102;BME280;1561;42.666;23.392;2022-12-07T02:35:19;95101.09;;;5.09;100.00
3102;BME280;1561;42.666;23.392;2022-12-07T02:37:58;95135.72;;;5.49;100.00
3102;BME280;1561;42.666;23.392;2022-12-07T02:40:34;95127.69;;;5.42;100.00
3102;BME280;1561;42.666;23.392;2022-12-07T02:43:23;95138.16;;;5.50;100.00
3102;BME280;1561;42.666;23.392;2022-12-07T02:45:57;95143.13;;;5.52;100.00
3102;BME280;1561;42.666;23.392;2022-12-07T02:48:28;95141.78;;;5.46;100.00
3102;BME280;1561;42.666;23.392;2022-12-07T02:50:58;95145.38;;;5.56;100.00
3102;BME280;1561;42.666;23.392;2022-12-07T02:53:31;95115.88;;;5.29;100.00
3102;BME280;1561;42.666;23.392;2022-12-07T02:56:06;95004.88;;;4.56;100.00
3102;BME280;1561;42.666;23.392;2022-12-07T02:58:49;95154.31;;;5.35;100.00
3102;BME280;1561;42.666;23.392;2022-12-07T03:01:34;95132.09;;;5.26;100.00
3102;BME280;1561;42.666;23.392;2022-12-07T03:04:24;95133.88;;;5.24;100.00
3102;BME280;1561;42.666;23.392;2022-12-07T03:07:12;95130.81;;;5.19;100.00
3102;BME280;1561;42.666;23.392;2022-12-07T03:09:45;95021.78;;;4.55;100.00
3102;BME280;1561;42.666;23.392;2022-12-07T03:12:21;95119.00;;;5.20;100.00
3102;BME280;1561;42.666;23.392;2022-12-07T03:14:56;95121.38;;;5.35;100.00
3102;BME280;1561;42.666;23.392;2022-12-07T03:17:38;95115.25;;;5.25;100.00
3102;BME280;1561;42.666;23.392;2022-12-07T03:20:11;95123.19;;;5.33;100.00
3102;BME280;1561;42.666;23.392;2022-12-07T03:22:42;95122.56;;;5.30;100.00
3102;BME280;1561;42.666;23.392;2022-12-07T03:25:14;95101.75;;;5.12;100.00
3102;BME280;1561;42.666;23.392;2022-12-07T03:27:49;95108.47;;;5.26;100.00
3102;BME280;1561;42.666;23.392;2022-12-07T03:30:23;95094.56;;;5.19;100.00
3102;BME280;1561;42.666;23.392;2022-12-07T03:33:02;95095.84;;;5.12;100.00
3102;BME280;1561;42.666;23.392;2022-12-07T03:35:40;95116.56;;;5.18;100.00
3102;BME280;1561;42.666;23.392;2022-12-07T03:38:15;95107.81;;;4.96;100.00
3102;BME280;1561;42.666;23.392;2022-12-07T03:40:57;95129.69;;;4.97;100.00
3102;BME280;1561;42.666;23.392;2022-12-07T03:43:27;95024.41;;;4.26;100.00
3102;BME280;1561;42.666;23.392;2022-12-07T03:46:01;95127.38;;;4.80;100.00
3102;BME280;1561;42.666;23.392;2022-12-07T03:48:40;95119.34;;;5.14;100.00
3102;BME280;1561;42.666;23.392;2022-12-07T03:51:22;95067.03;;;5.00;100.00
3102;BME280;1561;42.666;23.392;2022-12-07T03:53:58;95061.75;;;4.77;100.00
3102;BME280;1561;42.666;23.392;2022-12-07T03:56:28;95097.34;;;4.74;100.00
3102;BME280;1561;42.666;23.392;2022-12-07T03:59:01;95127.53;;;4.91;100.00
3102;BME280;1561;42.666;23.392;2022-12-07T04:01:29;95116.03;;;5.13;100.00
3102;BME280;1561;42.666;23.392;2022-12-07T04:04:02;95112.78;;;4.97;100.00
3102;BME280;1561;42.666;23.392;2022-12-07T04:06:34;95115.28;;;5.11;100.00
3102;BME280;1561;42.666;23.392;2022-12-07T04:09:04;95081.56;;;4.70;100.00
3102;BME280;1561;42.666;23.392;2022-12-07T04:11:32;95097.00;;;4.80;100.00
3102;BME280;1561;42.666;23.392;2022-12-07T04:14:01;95113.25;;;4.90;100.00
3102;BME280;1561;42.666;23.392;2022-12-07T04:16:48;95106.38;;;4.78;100.00
3102;BME280;1561;42.666;23.392;2022-12-07T04:19:21;95114.44;;;4.70;100.00
3102;BME280;1561;42.666;23.392;2022-12-07T04:21:48;95098.91;;;4.62;100.00
3102;BME280;1561;42.666;23.392;2022-12-07T04:24:21;95107.94;;;4.66;100.00
3102;BME280;1561;42.666;23.392;2022-12-07T04:26:50;95082.56;;;4.54;100.00
3102;BME280;1561;42.666;23.392;2022-12-07T04:29:20;95121.22;;;4.70;100.00
3102;BME280;1561;42.666;23.392;2022-12-07T04:31:53;95134.94;;;4.66;100.00
3102;BME280;1561;42.666;23.392;2022-12-07T04:34:36;95125.19;;;4.74;100.00
3102;BME280;1561;42.666;23.392;2022-12-07T04:37:06;94995.16;;;4.22;100.00
3102;BME280;1561;42.666;23.392;2022-12-07T04:39:38;95126.38;;;4.82;100.00
3102;BME280;1561;42.666;23.392;2022-12-07T04:42:14;95113.63;;;4.56;100.00
3102;BME280;1561;42.666;23.392;2022-12-07T04:44:42;95119.13;;;4.62;100.00
3102;BME280;1561;42.666;23.392;2022-12-07T04:47:13;95129.16;;;4.64;100.00
3102;BME280;1561;42.666;23.392;2022-12-07T04:49:58;95128.56;;;4.46;100.00
3102;BME280;1561;42.666;23.392;2022-12-07T04:52:26;95017.69;;;3.69;100.00
3102;BME280;1561;42.666;23.392;2022-12-07T04:54:53;95125.34;;;4.29;100.00
3102;BME280;1561;42.666;23.392;2022-12-07T04:57:25;95133.84;;;4.28;100.00
3102;BME280;1561;42.666;23.392;2022-12-07T04:59:53;95137.00;;;4.31;100.00
3102;BME280;1561;42.666;23.392;2022-12-07T05:02:34;95125.97;;;4.32;100.00
3102;BME280;1561;42.666;23.392;2022-12-07T05:05:03;95133.69;;;4.31;100.00
3102;BME280;1561;42.666;23.392;2022-12-07T05:07:37;95120.28;;;4.15;100.00
3102;BME280;1561;42.666;23.392;2022-12-07T05:10:07;95128.88;;;4.12;100.00
3102;BME280;1561;42.666;23.392;2022-12-07T05:12:38;95093.00;;;3.92;100.00
3102;BME280;1561;42.666;23.392;2022-12-07T05:15:06;95133.44;;;4.06;100.00
3102;BME280;1561;42.666;23.392;2022-12-07T05:17:36;95130.41;;;4.15;100.00
3102;BME280;1561;42.666;23.392;2022-12-07T05:20:09;95009.59;;;3.34;100.00
3102;BME280;1561;42.666;23.392;2022-12-07T05:22:39;95131.38;;;4.12;100.00
3102;BME280;1561;42.666;23.392;2022-12-07T05:25:06;95121.25;;;3.98;100.00
3102;BME280;1561;42.666;23.392;2022-12-07T05:27:35;95130.38;;;4.01;100.00
3102;BME280;1561;42.666;23.392;2022-12-07T05:30:05;95013.53;;;3.24;100.00
3102;BME280;1561;42.666;23.392;2022-12-07T05:32:35;95073.94;;;3.86;100.00
3102;BME280;1561;42.666;23.392;2022-12-07T05:35:13;94921.84;;;3.10;100.00
3102;BME280;1561;42.666;23.392;2022-12-07T05:37:41;95122.97;;;4.12;100.00
3102;BME280;1561;42.666;23.392;2022-12-07T05:40:10;95130.97;;;4.34;100.00
3102;BME280;1561;42.666;23.392;2022-12-07T05:42:43;95134.47;;;4.31;100.00
3102;BME280;1561;42.666;23.392;2022-12-07T05:45:14;95124.44;;;4.30;100.00
3102;BME280;1561;42.666;23.392;2022-12-07T05:47:45;94906.13;;;2.91;100.00
3102;BME280;1561;42.666;23.392;2022-12-07T05:50:16;94855.25;;;2.69;100.00
3102;BME280;1561;42.666;23.392;2022-12-07T05:52:43;95110.25;;;4.13;100.00
3102;BME280;1561;42.666;23.392;2022-12-07T05:55:14;95102.88;;;4.24;100.00
3102;BME280;1561;42.666;23.392;2022-12-07T05:57:45;95094.66;;;4.35;100.00
3102;BME280;1561;42.666;23.392;2022-12-07T06:00:29;95101.34;;;4.36;100.00
3102;BME280;1561;42.666;23.392;2022-12-07T06:02:59;94983.16;;;3.69;100.00
3102;BME280;1561;42.666;23.392;2022-12-07T06:05:31;95119.50;;;4.56;100.00
3102;BME280;1561;42.666;23.392;2022-12-07T06:07:59;95120.50;;;4.82;100.00
3102;BME280;1561;42.666;23.392;2022-12-07T06:10:28;95104.06;;;4.75;100.00
3102;BME280;1561;42.666;23.392;2022-12-07T06:12:57;95111.09;;;4.70;100.00
3102;BME280;1561;42.666;23.392;2022-12-07T06:15:27;95111.63;;;4.61;100.00
3102;BME280;1561;42.666;23.392;2022-12-07T06:17:55;95069.00;;;4.55;100.00
3102;BME280;1561;42.666;23.392;2022-12-07T06:20:27;95108.31;;;4.74;100.00
3102;BME280;1561;42.666;23.392;2022-12-07T06:23:10;95137.72;;;4.89;100.00
3102;BME280;1561;42.666;23.392;2022-12-07T06:25:45;95125.28;;;5.27;100.00
3102;BME280;1561;42.666;23.392;2022-12-07T06:28:17;95129.41;;;5.01;100.00
3102;BME280;1561;42.666;23.392;2022-12-07T06:30:45;95114.59;;;5.89;100.00
3102;BME280;1561;42.666;23.392;2022-12-07T06:33:13;95131.44;;;5.90;100.00
3102;BME280;1561;42.666;23.392;2022-12-07T06:35:41;95097.16;;;5.97;100.00
3102;BME280;1561;42.666;23.392;2022-12-07T06:38:10;95129.16;;;6.24;100.00
3102;BME280;1561;42.666;23.392;2022-12-07T06:40:38;95122.78;;;6.44;100.00
3102;BME280;1561;42.666;23.392;2022-12-07T06:43:06;95130.53;;;6.03;100.00
3102;BME280;1561;42.666;23.392;2022-12-07T06:45:41;95139.31;;;5.85;100.00
3102;BME280;1561;42.666;23.392;2022-12-07T06:48:13;95122.09;;;5.90;100.00
3102;BME280;1561;42.666;23.392;2022-12-07T06:50:46;95066.72;;;5.45;100.00
3102;BME280;1561;42.666;23.392;2022-12-07T06:53:22;95035.53;;;5.18;100.00
3102;BME280;1561;42.666;23.392;2022-12-07T06:55:51;95133.09;;;5.77;100.00
3102;BME280;1561;42.666;23.392;2022-12-07T06:58:19;95130.44;;;6.17;100.00
3102;BME280;1561;42.666;23.392;2022-12-07T07:00:57;95130.59;;;6.28;100.00
3102;BME280;1561;42.666;23.392;2022-12-07T07:03:29;95139.38;;;6.10;100.00
3102;BME280;1561;42.666;23.392;2022-12-07T07:06:13;95137.38;;;6.28;100.00
3102;BME280;1561;42.666;23.392;2022-12-07T07:11:47;95143.25;;;6.41;100.00
3102;BME280;1561;42.666;23.392;2022-12-07T07:14:28;95128.75;;;6.55;100.00
3102;BME280;1561;42.666;23.392;2022-12-07T07:17:18;95083.78;;;6.20;100.00
3102;BME280;1561;42.666;23.392;2022-12-07T07:20:03;95122.88;;;6.67;100.00
3102;BME280;1561;42.666;23.392;2022-12-07T07:22:41;95116.47;;;6.37;100.00
3102;BME280;1561;42.666;23.392;2022-12-07T07:25:09;95142.16;;;6.70;100.00
3102;BME280;1561;42.666;23.392;2022-12-07T07:27:41;95085.94;;;6.38;100.00
3102;BME280;1561;42.666;23.392;2022-12-07T07:30:18;95101.53;;;6.57;100.00
3102;BME280;1561;42.666;23.392;2022-12-07T07:32:56;95141.34;;;6.69;100.00
3102;BME280;1561;42.666;23.392;2022-12-07T07:35:27;95145.47;;;6.95;100.00
3102;BME280;1561;42.666;23.392;2022-12-07T07:37:57;95149.66;;;6.34;100.00
3102;BME280;1561;42.666;23.392;2022-12-07T07:40:25;95148.63;;;6.99;100.00
3102;BME280;1561;42.666;23.392;2022-12-07T07:42:58;95147.91;;;7.45;100.00
3102;BME280;1561;42.666;23.392;2022-12-07T07:45:27;95123.84;;;7.85;100.00
3102;BME280;1561;42.666;23.392;2022-12-07T07:47:56;95131.91;;;7.56;100.00
3102;BME280;1561;42.666;23.392;2022-12-07T07:50:57;95125.28;;;8.00;100.00
3102;BME280;1561;42.666;23.392;2022-12-07T07:53:26;95143.75;;;8.71;100.00
3102;BME280;1561;42.666;23.392;2022-12-07T07:55:59;95104.84;;;8.13;100.00
3102;BME280;1561;42.666;23.392;2022-12-07T07:58:54;95142.97;;;8.82;100.00
3102;BME280;1561;42.666;23.392;2022-12-07T08:02:02;95135.75;;;10.98;100.00
3102;BME280;1561;42.666;23.392;2022-12-07T08:04:29;95137.53;;;10.57;100.00
3102;BME280;1561;42.666;23.392;2022-12-07T08:06:56;95122.22;;;10.36;100.00
3102;BME280;1561;42.666;23.392;2022-12-07T08:09:25;95133.69;;;11.62;100.00
3102;BME280;1561;42.666;23.392;2022-12-07T08:11:52;95115.38;;;11.66;100.00
3102;BME280;1561;42.666;23.392;2022-12-07T08:14:20;95136.72;;;11.46;100.00
3102;BME280;1561;42.666;23.392;2022-12-07T08:16:47;95143.50;;;9.52;100.00
3102;BME280;1561;42.666;23.392;2022-12-07T08:19:14;95106.44;;;9.37;100.00
3102;BME280;1561;42.666;23.392;2022-12-07T08:21:42;95127.44;;;8.96;100.00
3102;BME280;1561;42.666;23.392;2022-12-07T08:24:13;95135.09;;;9.18;100.00
3102;BME280;1561;42.666;23.392;2022-12-07T08:26:41;95135.84;;;9.41;100.00
3102;BME280;1561;42.666;23.392;2022-12-07T08:29:08;95122.22;;;10.36;100.00
3102;BME280;1561;42.666;23.392;2022-12-07T08:31:46;95128.00;;;10.18;100.00
3102;BME280;1561;42.666;23.392;2022-12-07T08:34:13;95130.34;;;12.37;100.00
3102;BME280;1561;42.666;23.392;2022-12-07T08:36:40;95117.09;;;14.05;100.00
3102;BME280;1561;42.666;23.392;2022-12-07T08:39:08;95112.13;;;15.49;100.00
3102;BME280;1561;42.666;23.392;2022-12-07T08:41:35;95121.09;;;15.11;100.00
3102;BME280;1561;42.666;23.392;2022-12-07T08:44:02;95116.81;;;14.26;100.00
3102;BME280;1561;42.666;23.392;2022-12-07T08:46:32;95110.81;;;15.45;100.00
3102;BME280;1561;42.666;23.392;2022-12-07T08:49:05;95104.63;;;13.93;100.00
3102;BME280;1561;42.666;23.392;2022-12-07T08:51:34;95089.13;;;13.67;100.00
3102;BME280;1561;42.666;23.392;2022-12-07T08:54:04;95116.69;;;13.11;100.00
3102;BME280;1561;42.666;23.392;2022-12-07T08:56:33;95112.69;;;12.15;100.00
3102;BME280;1561;42.666;23.392;2022-12-07T08:59:01;95114.50;;;10.77;100.00
3102;BME280;1561;42.666;23.392;2022-12-07T09:01:29;95025.78;;;9.04;100.00
3102;BME280;1561;42.666;23.392;2022-12-07T09:03:58;95112.38;;;9.69;100.00
3102;BME280;1561;42.666;23.392;2022-12-07T09:06:28;95106.75;;;9.54;100.00
3102;BME280;1561;42.666;23.392;2022-12-07T09:08:58;95098.34;;;9.74;100.00
3102;BME280;1561;42.666;23.392;2022-12-07T09:11:27;95107.44;;;9.88;100.00
3102;BME280;1561;42.666;23.392;2022-12-07T09:13:56;95102.91;;;10.23;100.00
3102;BME280;1561;42.666;23.392;2022-12-07T09:16:22;95108.31;;;9.24;100.00
3102;BME280;1561;42.666;23.392;2022-12-07T09:18:52;95105.84;;;9.33;100.00
3102;BME280;1561;42.666;23.392;2022-12-07T09:21:24;95098.28;;;9.54;100.00
3102;BME280;1561;42.666;23.392;2022-12-07T09:23:54;95093.84;;;9.13;100.00
3102;BME280;1561;42.666;23.392;2022-12-07T09:26:21;94985.44;;;8.44;100.00
3102;BME280;1561;42.666;23.392;2022-12-07T09:28:49;95090.22;;;9.27;100.00
3102;BME280;1561;42.666;23.392;2022-12-07T09:31:20;95098.59;;;9.71;100.00
3102;BME280;1561;42.666;23.392;2022-12-07T09:33:46;95087.91;;;9.98;100.00
3102;BME280;1561;42.666;23.392;2022-12-07T09:36:15;95086.94;;;9.47;100.00
3102;BME280;1561;42.666;23.392;2022-12-07T09:38:42;95079.06;;;10.02;100.00
3102;BME280;1561;42.666;23.392;2022-12-07T09:41:10;95082.13;;;9.96;100.00
3102;BME280;1561;42.666;23.392;2022-12-07T09:43:38;95070.63;;;9.81;100.00
3102;BME280;1561;42.666;23.392;2022-12-07T09:46:09;95056.59;;;9.44;100.00
3102;BME280;1561;42.666;23.392;2022-12-07T09:48:40;95068.88;;;9.39;100.00
3102;BME280;1561;42.666;23.392;2022-12-07T09:51:14;95066.34;;;9.39;100.00
3102;BME280;1561;42.666;23.392;2022-12-07T09:53:43;95065.69;;;9.26;100.00
3102;BME280;1561;42.666;23.392;2022-12-07T09:56:13;95061.22;;;8.96;100.00
3102;BME280;1561;42.666;23.392;2022-12-07T09:58:41;95071.19;;;8.77;100.00
3102;BME280;1561;42.666;23.392;2022-12-07T10:01:12;95064.88;;;9.03;100.00
3102;BME280;1561;42.666;23.392;2022-12-07T10:03:41;95060.63;;;9.15;100.00
3102;BME280;1561;42.666;23.392;2022-12-07T10:06:11;95054.88;;;9.33;100.00
3102;BME280;1561;42.666;23.392;2022-12-07T10:08:39;95045.75;;;9.62;100.00
3102;BME280;1561;42.666;23.392;2022-12-07T10:11:10;95044.66;;;9.44;100.00
3102;BME280;1561;42.666;23.392;2022-12-07T10:13:43;95034.31;;;9.77;100.00
3102;BME280;1561;42.666;23.392;2022-12-07T10:16:32;95029.28;;;9.66;100.00
3102;BME280;1561;42.666;23.392;2022-12-07T10:19:21;94993.44;;;9.04;100.00
3102;BME280;1561;42.666;23.392;2022-12-07T10:22:09;95032.44;;;9.59;100.00
3102;BME280;1561;42.666;23.392;2022-12-07T10:24:39;95030.75;;;9.48;100.00
3102;BME280;1561;42.666;23.392;2022-12-07T10:27:18;95020.56;;;9.69;100.00
3102;BME280;1561;42.666;23.392;2022-12-07T10:30:12;95020.25;;;10.14;100.00
3102;BME280;1561;42.666;23.392;2022-12-07T10:32:42;94985.41;;;9.93;100.00
3102;BME280;1561;42.666;23.392;2022-12-07T10:35:20;95006.13;;;10.40;100.00
3102;BME280;1561;42.666;23.392;2022-12-07T10:37:50;94950.03;;;10.29;100.00
3102;BME280;1561;42.666;23.392;2022-12-07T10:40:29;94999.25;;;10.11;100.00
3102;BME280;1561;42.666;23.392;2022-12-07T10:43:16;95000.91;;;10.21;100.00
3102;BME280;1561;42.666;23.392;2022-12-07T10:46:07;94986.53;;;10.20;100.00
3102;BME280;1561;42.666;23.392;2022-12-07T10:48:50;95004.66;;;10.17;100.00
3102;BME280;1561;42.666;23.392;2022-12-07T10:51:26;94989.75;;;10.02;100.00
3102;BME280;1561;42.666;23.392;2022-12-07T10:54:08;94974.44;;;10.02;100.00
3102;BME280;1561;42.666;23.392;2022-12-07T10:57:07;94993.47;;;9.88;100.00
3102;BME280;1561;42.666;23.392;2022-12-07T10:59:53;94983.88;;;10.61;100.00
3102;BME280;1561;42.666;23.392;2022-12-07T11:02:45;94934.00;;;10.18;100.00
3102;BME280;1561;42.666;23.392;2022-12-07T11:05:22;94969.31;;;10.43;100.00
3102;BME280;1561;42.666;23.392;2022-12-07T11:08:00;94845.34;;;9.60;100.00
3102;BME280;1561;42.666;23.392;2022-12-07T11:10:37;94951.53;;;10.32;100.00
3102;BME280;1561;42.666;23.392;2022-12-07T11:16:23;94969.94;;;10.35;100.00
3102;BME280;1561;42.666;23.392;2022-12-07T11:21:56;94959.34;;;9.89;100.00
3102;BME280;1561;42.666;23.392;2022-12-07T11:24:32;94949.91;;;10.31;100.00
3102;BME280;1561;42.666;23.392;2022-12-07T11:27:34;94956.78;;;10.70;100.00
3102;BME280;1561;42.666;23.392;2022-12-07T11:30:15;94925.53;;;10.57;100.00
3102;BME280;1561;42.666;23.392;2022-12-07T11:32:55;94917.47;;;10.52;100.00
3102;BME280;1561;42.666;23.392;2022-12-07T11:35:48;94940.66;;;10.79;100.00
3102;BME280;1561;42.666;23.392;2022-12-07T11:38:22;94921.28;;;10.86;100.00
3102;BME280;1561;42.666;23.392;2022-12-07T11:40:58;94894.91;;;10.17;100.00
3102;BME280;1561;42.666;23.392;2022-12-07T11:43:52;94925.84;;;10.73;100.00
3102;BME280;1561;42.666;23.392;2022-12-07T11:46:23;94925.78;;;10.54;100.00
3102;BME280;1561;42.666;23.392;2022-12-07T11:49:00;94921.09;;;10.49;100.00
3102;BME280;1561;42.666;23.392;2022-12-07T11:51:33;94918.63;;;10.38;100.00
3102;BME280;1561;42.666;23.392;2022-12-07T11:54:10;94915.53;;;10.44;100.00
3102;BME280;1561;42.666;23.392;2022-12-07T11:56:39;94914.34;;;10.39;100.00
3102;BME280;1561;42.666;23.392;2022-12-07T11:59:12;94911.81;;;9.88;100.00
3102;BME280;1561;42.666;23.392;2022-12-07T12:01:53;94871.72;;;9.49;100.00
3102;BME280;1561;42.666;23.392;2022-12-07T12:04:30;94909.44;;;9.76;100.00
3102;BME280;1561;42.666;23.392;2022-12-07T12:07:13;94905.47;;;9.83;100.00
3102;BME280;1561;42.666;23.392;2022-12-07T12:09:49;94903.38;;;9.67;100.00
3102;BME280;1561;42.666;23.392;2022-12-07T12:12:57;94902.88;;;9.53;100.00
3102;BME280;1561;42.666;23.392;2022-12-07T12:15:42;94853.47;;;9.24;100.00
3102;BME280;1561;42.666;23.392;2022-12-07T12:18:29;94892.19;;;9.59;100.00
3102;BME280;1561;42.666;23.392;2022-12-07T12:21:07;94873.34;;;9.50;100.00
3102;BME280;1561;42.666;23.392;2022-12-07T12:23:44;94882.28;;;9.86;100.00
3102;BME280;1561;42.666;23.392;2022-12-07T12:26:16;94876.28;;;9.96;100.00
3102;BME280;1561;42.666;23.392;2022-12-07T12:28:54;94879.69;;;9.56;100.00
3102;BME280;1561;42.666;23.392;2022-12-07T12:31:35;94888.53;;;9.52;100.00
3102;BME280;1561;42.666;23.392;2022-12-07T12:36:48;94876.59;;;9.52;100.00
3102;BME280;1561;42.666;23.392;2022-12-07T12:39:19;94875.78;;;9.52;100.00
3102;BME280;1561;42.666;23.392;2022-12-07T12:41:58;94854.09;;;9.37;100.00
3102;BME280;1561;42.666;23.392;2022-12-07T12:45:05;94862.69;;;9.66;100.00
3102;BME280;1561;42.666;23.392;2022-12-07T12:48:02;94854.34;;;9.84;100.00
3102;BME280;1561;42.666;23.392;2022-12-07T12:50:32;94847.03;;;9.80;100.00
3102;BME280;1561;42.666;23.392;2022-12-07T12:53:16;94847.22;;;9.88;100.00
3102;BME280;1561;42.666;23.392;2022-12-07T12:56:13;94853.44;;;10.04;100.00
3102;BME280;1561;42.666;23.392;2022-12-07T12:58:47;94866.00;;;10.07;100.00
3102;BME280;1561;42.666;23.392;2022-12-07T13:01:43;94857.53;;;10.65;100.00
3102;BME280;1561;42.666;23.392;2022-12-07T13:07:13;94845.16;;;10.51;100.00
3102;BME280;1561;42.666;23.392;2022-12-07T13:10:01;94834.28;;;10.68;100.00
3102;BME280;1561;42.666;23.392;2022-12-07T13:12:35;94859.03;;;11.06;100.00
3102;BME280;1561;42.666;23.392;2022-12-07T13:15:31;94859.97;;;11.24;100.00
3102;BME280;1561;42.666;23.392;2022-12-07T13:18:22;94803.47;;;10.79;100.00
3102;BME280;1561;42.666;23.392;2022-12-07T13:20:59;94844.66;;;11.05;100.00
3102;BME280;1561;42.666;23.392;2022-12-07T13:23:31;94860.50;;;11.08;100.00
3102;BME280;1561;42.666;23.392;2022-12-07T13:26:13;94863.72;;;10.72;100.00
3102;BME280;1561;42.666;23.392;2022-12-07T13:28:46;94860.72;;;10.39;100.00
3102;BME280;1561;42.666;23.392;2022-12-07T13:31:32;94853.88;;;10.49;100.00
3102;BME280;1561;42.666;23.392;2022-12-07T13:34:00;94854.41;;;10.43;100.00
3102;BME280;1561;42.666;23.392;2022-12-07T13:36:31;94822.16;;;10.32;100.00
3102;BME280;1561;42.666;23.392;2022-12-07T13:39:14;94848.50;;;10.42;100.00
3102;BME280;1561;42.666;23.392;2022-12-07T13:41:48;94770.84;;;9.96;100.00
3102;BME280;1561;42.666;23.392;2022-12-07T13:44:18;94852.56;;;10.54;100.00
3102;BME280;1561;42.666;23.392;2022-12-07T13:46:57;94850.00;;;10.54;100.00
3102;BME280;1561;42.666;23.392;2022-12-07T13:49:29;94843.25;;;10.53;100.00
3102;BME280;1561;42.666;23.392;2022-12-07T13:52:13;94833.16;;;10.42;100.00
3102;BME280;1561;42.666;23.392;2022-12-07T13:54:45;94847.13;;;10.38;100.00
3102;BME280;1561;42.666;23.392;2022-12-07T13:57:14;94843.47;;;10.31;100.00
3102;BME280;1561;42.666;23.392;2022-12-07T13:59:43;94806.81;;;10.42;100.00
3102;BME280;1561;42.666;23.392;2022-12-07T14:02:22;94833.19;;;10.52;100.00